Terminal Aerodrome Forecast
Issued by NWS

Home | Current Version | Previous Version | Text Only | Print | Product List | Glossary On
Versions: 1 2 3 4 5 6 7 8 9 10 11 12 13
569
FTUS45 KRIW 012109 AAA
TAFLND
TAF AMD
KLND 012109Z 0121/0218 VRB06KT P6SM FEW110
     FM012300 21008G15KT P6SM VCSH SCT080
     FM020100 VRB06KT P6SM SCT100=

USA.gov is the U.S. government's official web portal to all federal, state and local government web resources and services.